createdAt,value
2019-04-11T00:01:47.778Z,5.40
2019-04-11T00:04:15.632Z,5.40
2019-04-11T00:06:43.481Z,5.40
2019-04-11T00:09:13.049Z,5.30
2019-04-11T00:11:41.992Z,5.40
2019-04-11T00:14:11.505Z,5.40
2019-04-11T00:16:39.518Z,5.40
2019-04-11T00:19:09.397Z,5.40
2019-04-11T00:21:41.314Z,5.40
2019-04-11T00:24:10.421Z,5.40
2019-04-11T00:26:38.727Z,5.40
2019-04-11T00:29:07.555Z,5.40
2019-04-11T00:31:36.889Z,5.40
2019-04-11T00:34:05.109Z,5.30
2019-04-11T00:36:34.634Z,5.30
2019-04-11T00:39:03.768Z,5.30
2019-04-11T00:41:32.836Z,5.30
2019-04-11T00:44:02.830Z,5.30
2019-04-11T00:46:32.045Z,5.30
2019-04-11T00:49:00.490Z,5.20
2019-04-11T00:51:29.880Z,5.20
2019-04-11T00:53:58.680Z,5.10
2019-04-11T00:56:28.390Z,5.10
2019-04-11T00:58:58.198Z,5.10
2019-04-11T01:01:28.021Z,5.10
2019-04-11T01:03:55.801Z,5.10
2019-04-11T01:06:25.905Z,5.00
2019-04-11T01:08:55.815Z,4.90
2019-04-11T01:11:25.491Z,5.00
2019-04-11T01:13:55.827Z,4.90
2019-04-11T01:16:46.769Z,4.90
2019-04-11T01:19:16.357Z,4.90
2019-04-11T01:21:44.559Z,4.80
2019-04-11T01:24:13.477Z,4.80
2019-04-11T01:26:42.044Z,4.90
2019-04-11T01:29:11.904Z,4.80
2019-04-11T01:31:42.928Z,4.90
2019-04-11T01:34:11.110Z,4.90
2019-04-11T01:36:39.945Z,4.90
2019-04-11T01:39:23.256Z,4.90
2019-04-11T01:41:51.015Z,4.80
2019-04-11T01:44:20.723Z,4.80
2019-04-11T01:46:48.893Z,4.80
2019-04-11T01:49:20.129Z,4.90
2019-04-11T01:51:49.722Z,4.90
2019-04-11T01:54:17.505Z,4.80
2019-04-11T01:56:47.583Z,4.80
2019-04-11T01:59:17.357Z,4.80
2019-04-11T02:02:05.357Z,4.60
2019-04-11T02:04:37.149Z,4.50
2019-04-11T02:07:07.593Z,4.50
2019-04-11T02:09:36.362Z,4.40
2019-04-11T02:12:05.795Z,4.40
2019-04-11T02:14:34.119Z,4.20
2019-04-11T02:17:02.904Z,4.20
